Time;durP1;ratioP1;P1;durP2;ratioP2;P2;SDS_P1;SDS_P2;PMS_P1;PMS_P2;Temp;Humidity;BMP_temperature;BMP_pressure;BME280_temperature;BME280_humidity;BME280_pressure;Samples;Min_cycle;Max_cycle;Signal;HPM_P1;HPM_P2
2024/03/23 00:00:23;;;;;;;2.97;2.20;;;;;;;;;;5034680;28;20032;-70
2024/03/23 00:02:49;;;;;;;6.68;1.80;;;;;;;;;;5037776;28;20029;-65
2024/03/23 00:05:16;;;;;;;2.28;1.65;;;;;;;;;;5036632;28;20239;-65
2024/03/23 00:07:42;;;;;;;5.95;1.90;;;;;;;;;;5033654;28;20132;-65
2024/03/23 00:10:09;;;;;;;7.97;2.05;;;;;;;;;;5045737;28;20031;-65
2024/03/23 00:12:36;;;;;;;7.03;2.00;;;;;;;;;;5037774;28;20370;-65
2024/03/23 00:15:02;;;;;;;11.15;2.65;;;;;;;;;;5041068;28;20114;-65
2024/03/23 00:17:29;;;;;;;2.97;1.85;;;;;;;;;;5042279;28;20107;-65
2024/03/23 00:19:56;;;;;;;5.03;2.40;;;;;;;;;;5044926;28;20124;-65
2024/03/23 00:22:22;;;;;;;6.40;1.88;;;;;;;;;;5038504;28;20097;-65
2024/03/23 00:24:49;;;;;;;2.22;1.38;;;;;;;;;;5041291;28;20022;-64
2024/03/23 00:27:16;;;;;;;3.35;1.77;;;;;;;;;;5041439;28;20108;-65
2024/03/23 00:29:42;;;;;;;6.10;1.90;;;;;;;;;;5039062;28;20036;-65
2024/03/23 00:32:09;;;;;;;2.95;1.98;;;;;;;;;;5042874;28;20112;-65
2024/03/23 00:34:36;;;;;;;2.60;1.50;;;;;;;;;;5042552;28;20032;-65
2024/03/23 00:37:02;;;;;;;6.80;1.60;;;;;;;;;;5040584;28;20549;-65
2024/03/23 00:39:29;;;;;;;2.22;1.60;;;;;;;;;;5027834;28;20041;-65
2024/03/23 00:41:55;;;;;;;3.55;1.77;;;;;;;;;;5037190;28;20036;-65
2024/03/23 00:44:22;;;;;;;2.55;1.48;;;;;;;;;;5043383;28;20032;-66
2024/03/23 00:46:48;;;;;;;1.85;1.75;;;;;;;;;;5044569;28;20098;-65
2024/03/23 00:49:15;;;;;;;12.63;1.92;;;;;;;;;;5033601;28;20105;-65
2024/03/23 00:51:41;;;;;;;4.25;1.95;;;;;;;;;;5044823;28;20040;-65
2024/03/23 00:54:07;;;;;;;2.83;2.13;;;;;;;;;;5037981;28;20227;-65
2024/03/23 00:56:33;;;;;;;2.83;1.40;;;;;;;;;;5042374;28;20530;-65
2024/03/23 00:59:00;;;;;;;4.32;2.42;;;;;;;;;;5039519;28;20037;-64
2024/03/23 01:01:26;;;;;;;5.90;2.40;;;;;;;;;;5045184;28;20425;-65
2024/03/23 01:03:52;;;;;;;9.27;2.63;;;;;;;;;;5032637;28;20057;-64
2024/03/23 01:06:18;;;;;;;4.95;1.70;;;;;;;;;;5040760;28;20037;-65
2024/03/23 01:08:44;;;;;;;6.55;2.05;;;;;;;;;;5043695;28;20055;-64
2024/03/23 01:11:11;;;;;;;4.30;1.67;;;;;;;;;;5037847;28;20432;-64
2024/03/23 01:13:38;;;;;;;2.38;1.40;;;;;;;;;;5033477;28;20057;-65
2024/03/23 01:16:04;;;;;;;4.40;1.55;;;;;;;;;;5037190;28;20492;-64
2024/03/23 01:18:30;;;;;;;2.53;1.55;;;;;;;;;;5041797;28;20060;-65
2024/03/23 01:20:56;;;;;;;5.60;3.40;;;;;;;;;;5042280;28;20078;-64
2024/03/23 01:23:22;;;;;;;7.80;2.28;;;;;;;;;;5040454;28;20033;-65
2024/03/23 01:25:53;;;;;;;1.60;1.50;;;;;;;;;;5041296;28;20079;-64
2024/03/23 01:28:19;;;;;;;2.08;1.80;;;;;;;;;;5039396;28;20115;-65
2024/03/23 01:30:45;;;;;;;9.18;2.58;;;;;;;;;;5034180;28;20041;-65
2024/03/23 01:33:12;;;;;;;8.48;2.28;;;;;;;;;;5037160;28;20036;-65
2024/03/23 01:35:38;;;;;;;8.18;2.47;;;;;;;;;;5030540;28;20029;-64
2024/03/23 01:38:04;;;;;;;5.15;2.38;;;;;;;;;;5039117;28;20057;-66
2024/03/23 01:40:33;;;;;;;2.70;1.65;;;;;;;;;;5038124;28;20036;-64
2024/03/23 01:43:03;;;;;;;12.02;2.80;;;;;;;;;;5026849;28;20321;-64
2024/03/23 01:45:30;;;;;;;2.20;1.85;;;;;;;;;;5032139;28;20033;-65
2024/03/23 01:47:56;;;;;;;5.22;1.92;;;;;;;;;;5038260;28;20029;-64
2024/03/23 01:50:23;;;;;;;3.70;1.67;;;;;;;;;;5042436;28;20086;-64
2024/03/23 01:52:50;;;;;;;2.05;1.83;;;;;;;;;;5032990;28;20040;-64
2024/03/23 01:55:16;;;;;;;4.32;2.00;;;;;;;;;;5037318;28;20393;-65
2024/03/23 01:57:42;;;;;;;4.18;2.55;;;;;;;;;;5033925;28;20036;-64
2024/03/23 02:00:12;;;;;;;4.97;2.88;;;;;;;;;;5044843;28;20035;-64
2024/03/23 02:02:41;;;;;;;9.90;2.22;;;;;;;;;;5029631;28;20440;-65
2024/03/23 02:05:08;;;;;;;3.20;2.10;;;;;;;;;;5043360;28;20526;-65
2024/03/23 02:07:34;;;;;;;1.40;1.40;;;;;;;;;;5033885;28;21266;-64
2024/03/23 02:10:01;;;;;;;3.53;3.22;;;;;;;;;;5040990;28;20093;-65
2024/03/23 02:12:27;;;;;;;4.85;3.13;;;;;;;;;;5030195;28;20039;-64
2024/03/23 02:14:53;;;;;;;6.57;2.55;;;;;;;;;;5039443;28;20531;-65
2024/03/23 02:17:19;;;;;;;2.45;2.20;;;;;;;;;;5036697;28;20473;-64
2024/03/23 02:19:46;;;;;;;6.25;2.90;;;;;;;;;;5038853;28;20040;-65
2024/03/23 02:22:12;;;;;;;4.43;2.00;;;;;;;;;;5038835;28;20017;-64
2024/03/23 02:24:38;;;;;;;12.50;2.80;;;;;;;;;;5036893;28;20025;-64
2024/03/23 02:27:05;;;;;;;5.78;1.90;;;;;;;;;;5033940;28;20522;-65
2024/03/23 02:29:31;;;;;;;10.10;2.90;;;;;;;;;;5034312;28;20496;-66
2024/03/23 02:31:58;;;;;;;6.68;2.08;;;;;;;;;;5035258;28;20044;-65
2024/03/23 02:34:25;;;;;;;3.78;1.73;;;;;;;;;;5037648;28;20108;-64
2024/03/23 02:36:51;;;;;;;6.40;1.83;;;;;;;;;;5037226;28;20036;-65
2024/03/23 02:39:17;;;;;;;2.35;2.00;;;;;;;;;;5040082;28;20132;-64
2024/03/23 02:41:43;;;;;;;3.38;2.10;;;;;;;;;;5028556;28;20484;-65
2024/03/23 02:44:11;;;;;;;8.70;2.47;;;;;;;;;;5040017;28;20499;-65
2024/03/23 02:46:38;;;;;;;3.08;2.45;;;;;;;;;;5032464;28;20037;-65
2024/03/23 02:49:04;;;;;;;6.50;1.45;;;;;;;;;;5043852;28;20041;-65
2024/03/23 02:51:31;;;;;;;2.22;1.73;;;;;;;;;;5038255;28;20036;-65
2024/03/23 02:53:57;;;;;;;6.22;2.58;;;;;;;;;;5040525;28;20500;-66
2024/03/23 02:56:23;;;;;;;6.10;2.03;;;;;;;;;;5037143;28;20389;-68
2024/03/23 02:58:49;;;;;;;3.47;1.73;;;;;;;;;;5035356;28;20028;-66
2024/03/23 03:01:15;;;;;;;1.58;1.48;;;;;;;;;;5035166;28;20599;-65
2024/03/23 03:03:42;;;;;;;1.92;1.83;;;;;;;;;;5044135;28;20531;-65
2024/03/23 03:06:08;;;;;;;2.00;1.70;;;;;;;;;;5035728;28;20021;-65
2024/03/23 03:08:34;;;;;;;6.15;2.00;;;;;;;;;;5034376;28;20039;-66
2024/03/23 03:11:00;;;;;;;2.97;1.60;;;;;;;;;;5043384;28;20111;-65
2024/03/23 03:13:27;;;;;;;5.07;2.15;;;;;;;;;;5043966;28;20500;-65
2024/03/23 03:15:53;;;;;;;4.18;1.73;;;;;;;;;;5035351;28;20030;-69
2024/03/23 03:18:19;;;;;;;1.40;1.40;;;;;;;;;;5042084;28;20108;-65
2024/03/23 03:20:45;;;;;;;2.00;1.58;;;;;;;;;;5043584;28;20060;-65
2024/03/23 03:23:11;;;;;;;2.65;2.08;;;;;;;;;;5041057;28;20248;-65
2024/03/23 03:25:38;;;;;;;5.07;1.70;;;;;;;;;;5046903;28;20052;-65
2024/03/23 03:28:05;;;;;;;4.35;2.45;;;;;;;;;;5041048;28;20503;-65
2024/03/23 03:30:31;;;;;;;6.32;1.65;;;;;;;;;;5038299;28;20021;-65
2024/03/23 03:32:57;;;;;;;5.53;2.25;;;;;;;;;;5040136;28;20325;-66
2024/03/23 03:35:23;;;;;;;3.85;2.67;;;;;;;;;;5032197;28;20396;-65
2024/03/23 03:37:49;;;;;;;3.13;1.65;;;;;;;;;;5038449;28;20044;-65
2024/03/23 03:40:16;;;;;;;1.42;1.42;;;;;;;;;;5039568;28;20112;-65
2024/03/23 03:42:42;;;;;;;1.85;1.48;;;;;;;;;;5037258;28;20034;-65
2024/03/23 03:45:08;;;;;;;5.38;1.60;;;;;;;;;;5038399;28;20047;-65
2024/03/23 03:47:34;;;;;;;3.47;2.03;;;;;;;;;;5036133;28;20035;-65
2024/03/23 03:50:00;;;;;;;2.75;1.58;;;;;;;;;;5030835;28;20075;-64
2024/03/23 03:52:27;;;;;;;2.22;1.67;;;;;;;;;;5038233;28;20108;-65
2024/03/23 03:55:05;;;;;;;1.88;1.60;;;;;;;;;;5043181;28;20037;-64
2024/03/23 03:57:31;;;;;;;1.48;1.40;;;;;;;;;;5040656;28;20026;-65
2024/03/23 03:59:57;;;;;;;2.67;2.00;;;;;;;;;;5033505;28;20036;-65
2024/03/23 04:02:24;;;;;;;2.72;1.38;;;;;;;;;;5033001;28;20465;-64
2024/03/23 04:04:50;;;;;;;1.67;1.55;;;;;;;;;;5039565;28;20024;-65
2024/03/23 04:07:18;;;;;;;4.63;1.90;;;;;;;;;;5042042;28;20035;-65
2024/03/23 04:09:44;;;;;;;8.82;2.42;;;;;;;;;;5052816;28;20114;-65
2024/03/23 04:12:10;;;;;;;3.78;2.15;;;;;;;;;;5036244;28;20510;-64
2024/03/23 04:14:36;;;;;;;6.13;2.95;;;;;;;;;;5026603;28;20107;-64
2024/03/23 04:17:02;;;;;;;3.60;1.48;;;;;;;;;;5039698;28;20171;-65
2024/03/23 04:19:28;;;;;;;3.83;1.50;;;;;;;;;;5045762;28;20113;-64
2024/03/23 04:21:55;;;;;;;7.47;2.47;;;;;;;;;;5041109;28;20132;-66
2024/03/23 04:24:22;;;;;;;6.50;1.70;;;;;;;;;;5041592;28;20053;-64
2024/03/23 04:26:48;;;;;;;2.58;1.60;;;;;;;;;;5040129;28;20025;-64
2024/03/23 04:29:14;;;;;;;1.70;1.60;;;;;;;;;;5043947;28;20028;-65
2024/03/23 04:31:40;;;;;;;14.55;1.80;;;;;;;;;;5037720;28;20143;-64
2024/03/23 04:34:07;;;;;;;2.53;1.65;;;;;;;;;;5038808;28;20556;-64
2024/03/23 04:36:33;;;;;;;4.18;2.03;;;;;;;;;;5041632;28;20025;-64
2024/03/23 04:39:00;;;;;;;1.77;1.67;;;;;;;;;;5039007;28;20052;-65
2024/03/23 04:41:26;;;;;;;2.28;1.70;;;;;;;;;;5031180;28;20036;-65
2024/03/23 04:43:53;;;;;;;7.57;1.70;;;;;;;;;;5032410;28;20029;-65
2024/03/23 04:46:20;;;;;;;6.93;2.20;;;;;;;;;;5033801;28;20024;-64
2024/03/23 04:48:46;;;;;;;8.63;2.20;;;;;;;;;;5040990;28;20481;-65
2024/03/23 04:51:21;;;;;;;5.57;2.35;;;;;;;;;;5039788;28;20106;-64
2024/03/23 04:53:50;;;;;;;1.60;1.50;;;;;;;;;;5031691;28;20021;-65
2024/03/23 04:56:17;;;;;;;1.77;1.50;;;;;;;;;;5038751;28;20550;-65
2024/03/23 04:58:43;;;;;;;10.90;2.15;;;;;;;;;;5027142;28;20075;-65
2024/03/23 05:01:10;;;;;;;4.05;1.85;;;;;;;;;;5043407;28;20032;-64
2024/03/23 05:03:36;;;;;;;8.05;2.10;;;;;;;;;;5043346;28;20039;-65
2024/03/23 05:06:02;;;;;;;6.70;1.85;;;;;;;;;;5037570;28;20048;-65
2024/03/23 05:08:28;;;;;;;1.95;1.85;;;;;;;;;;5036563;28;20092;-65
2024/03/23 05:10:54;;;;;;;4.72;1.77;;;;;;;;;;5045027;28;20033;-64
2024/03/23 05:13:20;;;;;;;1.50;1.40;;;;;;;;;;5040809;28;20052;-65
2024/03/23 05:15:54;;;;;;;5.38;1.63;;;;;;;;;;5038439;28;20748;-65
2024/03/23 05:18:20;;;;;;;3.45;2.22;;;;;;;;;;5033225;28;20511;-66
2024/03/23 05:20:46;;;;;;;2.65;1.92;;;;;;;;;;5041790;28;20032;-65
2024/03/23 05:23:13;;;;;;;2.22;1.65;;;;;;;;;;5037958;28;20017;-64
2024/03/23 05:25:39;;;;;;;2.15;1.73;;;;;;;;;;5042852;28;20037;-64
2024/03/23 05:28:06;;;;;;;5.78;2.00;;;;;;;;;;5038472;28;20497;-65
2024/03/23 05:30:33;;;;;;;2.85;2.05;;;;;;;;;;5040891;28;20025;-65
2024/03/23 05:32:59;;;;;;;1.98;1.67;;;;;;;;;;5040398;28;20021;-65
2024/03/23 05:35:25;;;;;;;4.53;1.92;;;;;;;;;;5041383;28;20025;-65
2024/03/23 05:37:51;;;;;;;1.30;1.30;;;;;;;;;;5042584;28;20374;-65
2024/03/23 05:40:17;;;;;;;6.35;1.95;;;;;;;;;;5037055;28;20095;-64
2024/03/23 05:42:44;;;;;;;3.30;1.70;;;;;;;;;;5036991;28;20032;-64
2024/03/23 05:45:11;;;;;;;5.05;2.40;;;;;;;;;;5038604;28;20037;-64
2024/03/23 05:47:37;;;;;;;1.70;1.60;;;;;;;;;;5030543;28;20396;-65
2024/03/23 05:50:03;;;;;;;3.67;2.15;;;;;;;;;;5041143;28;20033;-64
2024/03/23 05:52:29;;;;;;;2.63;1.90;;;;;;;;;;5034940;28;20029;-65
2024/03/23 05:54:56;;;;;;;5.75;2.58;;;;;;;;;;5042344;28;20033;-65
2024/03/23 05:57:22;;;;;;;2.45;1.33;;;;;;;;;;5035611;28;20043;-66
2024/03/23 05:59:48;;;;;;;2.95;2.00;;;;;;;;;;5035142;28;20422;-65
2024/03/23 06:02:14;;;;;;;3.92;1.55;;;;;;;;;;5037405;28;20029;-65
2024/03/23 06:04:40;;;;;;;3.13;1.73;;;;;;;;;;5038343;28;20016;-65
2024/03/23 06:07:07;;;;;;;5.30;1.92;;;;;;;;;;5042895;28;20147;-65
2024/03/23 06:09:33;;;;;;;7.28;2.10;;;;;;;;;;5041234;28;20063;-65
2024/03/23 06:11:59;;;;;;;2.97;1.58;;;;;;;;;;5036677;28;20031;-65
2024/03/23 06:14:25;;;;;;;4.95;1.63;;;;;;;;;;5042363;28;20047;-65
2024/03/23 06:16:52;;;;;;;7.10;2.08;;;;;;;;;;5034855;28;20400;-65
2024/03/23 06:19:18;;;;;;;7.43;1.60;;;;;;;;;;5024732;28;20519;-65
2024/03/23 06:21:44;;;;;;;3.72;1.83;;;;;;;;;;5037127;28;20041;-65
2024/03/23 06:24:11;;;;;;;4.68;1.85;;;;;;;;;;5038886;28;20112;-65
2024/03/23 06:26:37;;;;;;;2.10;1.55;;;;;;;;;;5038884;28;20479;-65
2024/03/23 06:29:05;;;;;;;5.00;2.03;;;;;;;;;;5036617;28;20132;-65
2024/03/23 06:31:31;;;;;;;4.90;1.80;;;;;;;;;;5035268;28;20547;-65
2024/03/23 06:33:57;;;;;;;4.38;1.90;;;;;;;;;;5034764;28;20043;-65
2024/03/23 06:36:23;;;;;;;6.30;2.28;;;;;;;;;;5038510;28;20074;-64
2024/03/23 06:38:49;;;;;;;2.78;2.13;;;;;;;;;;5042998;28;20575;-65
2024/03/23 06:41:15;;;;;;;2.53;1.90;;;;;;;;;;5035572;28;20033;-65
2024/03/23 06:43:42;;;;;;;1.67;1.50;;;;;;;;;;5034579;28;20028;-66
2024/03/23 06:46:08;;;;;;;1.65;1.52;;;;;;;;;;5035806;28;20029;-65
2024/03/23 06:48:34;;;;;;;7.68;2.00;;;;;;;;;;5040008;28;20025;-69
2024/03/23 06:51:00;;;;;;;3.88;1.67;;;;;;;;;;5035757;28;20084;-65
2024/03/23 06:53:26;;;;;;;1.88;1.77;;;;;;;;;;5032447;28;20021;-65
2024/03/23 06:55:53;;;;;;;1.70;1.60;;;;;;;;;;5038074;28;20037;-65
2024/03/23 06:58:24;;;;;;;6.10;1.67;;;;;;;;;;5041354;28;20493;-65
2024/03/23 07:00:51;;;;;;;6.13;2.22;;;;;;;;;;5038473;28;20025;-65
2024/03/23 07:03:21;;;;;;;2.72;1.73;;;;;;;;;;5022609;28;20029;-66
2024/03/23 07:05:47;;;;;;;3.25;1.98;;;;;;;;;;5031626;28;20168;-69
2024/03/23 07:08:18;;;;;;;4.45;2.03;;;;;;;;;;5029499;28;20108;-70
2024/03/23 07:10:44;;;;;;;2.05;1.45;;;;;;;;;;5033904;28;20485;-70
2024/03/23 07:13:10;;;;;;;4.38;1.70;;;;;;;;;;5039545;28;20473;-69
2024/03/23 07:15:37;;;;;;;3.17;1.95;;;;;;;;;;5039309;28;20039;-72
2024/03/23 07:18:03;;;;;;;5.78;1.60;;;;;;;;;;5046535;28;20112;-76
2024/03/23 07:20:31;;;;;;;2.33;1.83;;;;;;;;;;5046332;28;20029;-73
2024/03/23 07:22:58;;;;;;;10.45;2.17;;;;;;;;;;5038976;28;20017;-77
2024/03/23 07:25:25;;;;;;;2.83;2.22;;;;;;;;;;5045906;28;20032;-73
2024/03/23 07:27:51;;;;;;;2.28;1.90;;;;;;;;;;5042807;28;20464;-73
2024/03/23 07:30:17;;;;;;;1.60;1.50;;;;;;;;;;5040566;28;20819;-74
2024/03/23 07:32:45;;;;;;;10.02;2.53;;;;;;;;;;5037453;28;20048;-75
2024/03/23 07:35:11;;;;;;;2.33;2.15;;;;;;;;;;5046534;28;20029;-75
2024/03/23 07:37:37;;;;;;;3.33;1.65;;;;;;;;;;5042630;28;20722;-77
2024/03/23 07:40:04;;;;;;;6.60;1.75;;;;;;;;;;5045421;28;20032;-77
2024/03/23 07:42:30;;;;;;;1.55;1.52;;;;;;;;;;5045750;28;20032;-72
2024/03/23 07:44:57;;;;;;;5.10;2.25;;;;;;;;;;5037581;28;20028;-70
2024/03/23 07:47:23;;;;;;;5.00;1.98;;;;;;;;;;5048369;28;20492;-75
2024/03/23 07:49:49;;;;;;;2.53;1.85;;;;;;;;;;5045686;28;20445;-72
2024/03/23 07:52:15;;;;;;;11.35;2.55;;;;;;;;;;5048047;28;20035;-72
2024/03/23 07:54:42;;;;;;;2.83;1.98;;;;;;;;;;5044482;28;20072;-72
2024/03/23 07:57:08;;;;;;;2.17;1.90;;;;;;;;;;5040233;28;20040;-71
2024/03/23 07:59:34;;;;;;;3.38;1.95;;;;;;;;;;5041771;28;20556;-71
2024/03/23 08:02:01;;;;;;;1.88;1.77;;;;;;;;;;5042719;28;20022;-71
2024/03/23 08:04:30;;;;;;;5.05;2.17;;;;;;;;;;5043787;28;20056;-72
2024/03/23 08:06:56;;;;;;;9.07;1.85;;;;;;;;;;5043202;28;20545;-71
2024/03/23 08:09:23;;;;;;;2.95;1.30;;;;;;;;;;5042119;28;20025;-71
2024/03/23 08:11:49;;;;;;;6.05;2.33;;;;;;;;;;5036425;28;20060;-73
2024/03/23 08:14:15;;;;;;;1.52;1.50;;;;;;;;;;5044182;28;20036;-73
2024/03/23 08:16:41;;;;;;;3.92;2.53;;;;;;;;;;5044161;28;20029;-72
2024/03/23 08:19:08;;;;;;;4.15;1.85;;;;;;;;;;5040447;28;20120;-69
2024/03/23 08:21:34;;;;;;;2.42;1.42;;;;;;;;;;5035776;28;20354;-70
2024/03/23 08:24:01;;;;;;;1.23;1.23;;;;;;;;;;5041745;28;20053;-70
2024/03/23 08:26:27;;;;;;;2.67;1.60;;;;;;;;;;5040664;28;20026;-69
2024/03/23 08:28:53;;;;;;;2.28;2.08;;;;;;;;;;5041246;28;20025;-69
2024/03/23 08:31:19;;;;;;;1.83;1.73;;;;;;;;;;5039104;28;20021;-69
2024/03/23 08:33:47;;;;;;;2.70;1.40;;;;;;;;;;5048866;28;20040;-69
2024/03/23 08:36:14;;;;;;;3.97;1.70;;;;;;;;;;5040712;28;20051;-69
2024/03/23 08:38:40;;;;;;;2.03;1.40;;;;;;;;;;5050431;28;20044;-69
2024/03/23 08:41:08;;;;;;;1.27;1.27;;;;;;;;;;5041193;28;20029;-70
2024/03/23 08:43:36;;;;;;;2.55;1.27;;;;;;;;;;5040540;28;20025;-69
2024/03/23 08:46:06;;;;;;;6.38;2.38;;;;;;;;;;5039331;28;20021;-69
2024/03/23 08:48:33;;;;;;;3.67;1.48;;;;;;;;;;5045793;28;20392;-69
2024/03/23 08:51:03;;;;;;;4.15;1.63;;;;;;;;;;5040161;28;20033;-69
2024/03/23 08:53:32;;;;;;;9.00;3.10;;;;;;;;;;5037004;28;20423;-69
2024/03/23 08:56:02;;;;;;;1.75;1.60;;;;;;;;;;5036504;28;20033;-69
2024/03/23 08:58:29;;;;;;;1.50;1.27;;;;;;;;;;5038679;28;20029;-69
2024/03/23 09:00:56;;;;;;;2.58;1.40;;;;;;;;;;5041098;28;20473;-69
2024/03/23 09:03:23;;;;;;;2.50;2.30;;;;;;;;;;5038009;28;20381;-69
2024/03/23 09:05:49;;;;;;;4.95;1.67;;;;;;;;;;5033286;28;20396;-69
2024/03/23 09:08:16;;;;;;;1.70;1.60;;;;;;;;;;5040995;28;20028;-69
2024/03/23 09:10:42;;;;;;;3.10;1.88;;;;;;;;;;5043042;28;21063;-69
2024/03/23 09:13:08;;;;;;;2.97;1.63;;;;;;;;;;5042370;28;20037;-69
2024/03/23 09:15:35;;;;;;;1.73;1.63;;;;;;;;;;5042599;28;20041;-69
2024/03/23 09:18:01;;;;;;;1.67;1.58;;;;;;;;;;5039216;28;20481;-70
2024/03/23 09:20:28;;;;;;;1.70;1.60;;;;;;;;;;5041132;28;20043;-69
2024/03/23 09:22:54;;;;;;;2.53;1.77;;;;;;;;;;5033368;28;20055;-69
2024/03/23 09:25:20;;;;;;;1.75;1.38;;;;;;;;;;5032392;28;20079;-70
2024/03/23 09:27:47;;;;;;;6.60;2.28;;;;;;;;;;5037958;28;20037;-69
2024/03/23 09:30:14;;;;;;;2.13;1.60;;;;;;;;;;5037346;28;20033;-74
2024/03/23 09:32:40;;;;;;;1.58;1.30;;;;;;;;;;5036064;28;20033;-70
2024/03/23 09:35:06;;;;;;;2.97;1.52;;;;;;;;;;5031611;28;20389;-69
2024/03/23 09:37:33;;;;;;;6.30;2.08;;;;;;;;;;5036376;28;20489;-69
2024/03/23 09:39:59;;;;;;;5.75;2.58;;;;;;;;;;5036394;28;20040;-69
2024/03/23 09:42:25;;;;;;;1.52;1.42;;;;;;;;;;5037076;28;20483;-69
2024/03/23 09:44:51;;;;;;;3.78;1.48;;;;;;;;;;5029461;28;20237;-70
2024/03/23 09:47:18;;;;;;;1.85;1.33;;;;;;;;;;5031781;28;20021;-69
2024/03/23 09:49:44;;;;;;;3.20;1.63;;;;;;;;;;5025055;28;20256;-69
2024/03/23 09:52:11;;;;;;;1.33;1.33;;;;;;;;;;5037624;28;20641;-69
2024/03/23 09:54:37;;;;;;;2.42;1.50;;;;;;;;;;5030849;28;20029;-68
2024/03/23 09:57:04;;;;;;;2.28;1.42;;;;;;;;;;5026325;28;20075;-69
2024/03/23 09:59:30;;;;;;;2.67;1.40;;;;;;;;;;5036078;28;20531;-69
2024/03/23 10:01:57;;;;;;;1.50;1.40;;;;;;;;;;5042895;28;20027;-69
2024/03/23 10:04:43;;;;;;;1.30;1.30;;;;;;;;;;5031290;28;20025;-69
2024/03/23 10:07:16;;;;;;;1.50;1.40;;;;;;;;;;5034203;28;20358;-70
2024/03/23 10:09:43;;;;;;;1.65;1.55;;;;;;;;;;5035610;28;20026;-70
2024/03/23 10:12:15;;;;;;;2.17;2.08;;;;;;;;;;5038707;28;20524;-70
2024/03/23 10:14:42;;;;;;;1.65;1.55;;;;;;;;;;5036849;28;20036;-70
2024/03/23 10:17:23;;;;;;;6.72;1.90;;;;;;;;;;5033975;28;20033;-69
2024/03/23 10:19:51;;;;;;;5.70;3.03;;;;;;;;;;5043795;28;20048;-70
2024/03/23 10:22:24;;;;;;;2.80;2.33;;;;;;;;;;5034013;28;20105;-69
2024/03/23 10:24:51;;;;;;;2.35;1.80;;;;;;;;;;5040450;28;20025;-72
2024/03/23 10:27:18;;;;;;;2.47;1.67;;;;;;;;;;5032566;28;20036;-69
2024/03/23 10:29:45;;;;;;;7.55;2.55;;;;;;;;;;5052105;28;20056;-69
2024/03/23 10:32:18;;;;;;;1.80;1.70;;;;;;;;;;5044115;28;20021;-69
2024/03/23 10:34:45;;;;;;;4.28;1.77;;;;;;;;;;5034875;28;20033;-69
2024/03/23 10:37:12;;;;;;;1.92;1.83;;;;;;;;;;5037859;28;20025;-69
2024/03/23 10:39:39;;;;;;;2.35;1.80;;;;;;;;;;5031391;28;20042;-70
2024/03/23 10:42:12;;;;;;;1.63;1.52;;;;;;;;;;5030907;28;20034;-69
2024/03/23 10:44:38;;;;;;;11.18;2.33;;;;;;;;;;5027926;28;20045;-69
2024/03/23 10:47:05;;;;;;;1.80;1.70;;;;;;;;;;5027926;28;20478;-69
2024/03/23 10:49:35;;;;;;;5.88;2.03;;;;;;;;;;5034261;28;20029;-70
2024/03/23 10:52:01;;;;;;;2.38;1.65;;;;;;;;;;5039289;28;20033;-70
2024/03/23 10:54:28;;;;;;;1.90;1.80;;;;;;;;;;5040030;28;20029;-70
2024/03/23 10:57:05;;;;;;;3.90;1.80;;;;;;;;;;5032173;28;20428;-70
2024/03/23 10:59:32;;;;;;;1.73;1.63;;;;;;;;;;5028570;28;20033;-69
2024/03/23 11:01:59;;;;;;;2.13;1.92;;;;;;;;;;5030731;28;20034;-69
2024/03/23 11:04:32;;;;;;;2.53;2.00;;;;;;;;;;5032686;28;20537;-70
2024/03/23 11:06:59;;;;;;;5.28;2.20;;;;;;;;;;5029214;28;20029;-69
2024/03/23 11:09:43;;;;;;;2.80;1.88;;;;;;;;;;5029822;28;20033;-70
2024/03/23 11:12:19;;;;;;;3.33;1.63;;;;;;;;;;5056209;28;20076;-70
2024/03/23 11:14:45;;;;;;;5.05;1.95;;;;;;;;;;5034431;28;20068;-70
2024/03/23 11:17:11;;;;;;;2.83;1.67;;;;;;;;;;5034031;28;20490;-70
2024/03/23 11:19:38;;;;;;;3.88;1.42;;;;;;;;;;5033444;28;20226;-69
2024/03/23 11:22:08;;;;;;;3.17;1.70;;;;;;;;;;5044333;28;20339;-70
2024/03/23 11:24:34;;;;;;;5.85;3.15;;;;;;;;;;5036276;28;20489;-70
2024/03/23 11:27:03;;;;;;;6.30;2.00;;;;;;;;;;5038011;28;20090;-70
2024/03/23 11:29:30;;;;;;;7.47;1.67;;;;;;;;;;5045005;28;20040;-70
2024/03/23 11:31:56;;;;;;;1.25;1.25;;;;;;;;;;5046212;28;20029;-70
2024/03/23 11:34:22;;;;;;;4.95;1.90;;;;;;;;;;5043816;28;20021;-69
2024/03/23 11:36:52;;;;;;;3.80;1.40;;;;;;;;;;5045404;28;20025;-70
2024/03/23 11:39:19;;;;;;;1.52;1.40;;;;;;;;;;5036180;28;20049;-70
2024/03/23 11:41:46;;;;;;;4.40;1.73;;;;;;;;;;5049808;28;20089;-70
2024/03/23 11:44:19;;;;;;;3.35;2.22;;;;;;;;;;5047074;28;20453;-70
2024/03/23 11:46:46;;;;;;;4.32;2.13;;;;;;;;;;5038457;28;20386;-70
2024/03/23 11:49:22;;;;;;;5.57;1.83;;;;;;;;;;5038055;28;20045;-72
2024/03/23 11:51:49;;;;;;;2.33;2.13;;;;;;;;;;5034497;28;20029;-70
2024/03/23 11:54:15;;;;;;;1.73;1.60;;;;;;;;;;5037763;28;20035;-70
2024/03/23 11:56:41;;;;;;;5.85;2.00;;;;;;;;;;5030999;28;20034;-70
2024/03/23 11:59:07;;;;;;;4.43;2.00;;;;;;;;;;5040058;28;20044;-70
2024/03/23 12:01:34;;;;;;;3.58;1.70;;;;;;;;;;5033721;28;20039;-70
2024/03/23 12:04:03;;;;;;;4.15;2.28;;;;;;;;;;5043072;28;20086;-70
2024/03/23 12:06:29;;;;;;;6.40;1.70;;;;;;;;;;5037714;28;20507;-69
2024/03/23 12:09:06;;;;;;;3.53;2.22;;;;;;;;;;5041538;28;20052;-69
2024/03/23 12:11:32;;;;;;;5.55;2.50;;;;;;;;;;5030164;28;20029;-70
2024/03/23 12:14:00;;;;;;;5.15;1.98;;;;;;;;;;5030879;28;20064;-70
2024/03/23 12:16:27;;;;;;;7.50;2.40;;;;;;;;;;5043008;28;20112;-69
2024/03/23 12:18:54;;;;;;;3.88;2.10;;;;;;;;;;5033847;28;20500;-70
2024/03/23 12:21:22;;;;;;;2.58;1.95;;;;;;;;;;5031699;28;20028;-69
2024/03/23 12:23:50;;;;;;;7.93;1.90;;;;;;;;;;5041754;28;20017;-70
2024/03/23 12:26:17;;;;;;;2.85;2.20;;;;;;;;;;5040696;28;20381;-69
2024/03/23 12:28:43;;;;;;;3.35;2.63;;;;;;;;;;5028381;28;20624;-70
2024/03/23 12:31:11;;;;;;;5.80;2.35;;;;;;;;;;5031008;28;20028;-70
2024/03/23 12:33:37;;;;;;;4.55;2.00;;;;;;;;;;5048955;28;20033;-69
2024/03/23 12:36:04;;;;;;;4.10;2.13;;;;;;;;;;5031973;28;20031;-70
2024/03/23 12:38:30;;;;;;;2.50;2.28;;;;;;;;;;5044249;28;20056;-70
2024/03/23 12:40:56;;;;;;;7.63;2.30;;;;;;;;;;5031842;28;20028;-70
2024/03/23 12:43:23;;;;;;;2.90;1.88;;;;;;;;;;5030954;28;20466;-70
2024/03/23 12:45:49;;;;;;;6.50;2.30;;;;;;;;;;5035582;28;20025;-71
2024/03/23 12:48:15;;;;;;;8.50;2.00;;;;;;;;;;5040730;28;20025;-71
2024/03/23 12:50:42;;;;;;;3.67;1.95;;;;;;;;;;5034220;28;20037;-70
2024/03/23 12:53:08;;;;;;;1.80;1.70;;;;;;;;;;5040669;28;20037;-71
2024/03/23 12:55:37;;;;;;;2.90;2.13;;;;;;;;;;5026705;28;20410;-71
2024/03/23 12:58:04;;;;;;;4.05;2.13;;;;;;;;;;5038982;28;20059;-70
2024/03/23 13:00:30;;;;;;;4.07;2.13;;;;;;;;;;5031297;28;20805;-70
2024/03/23 13:02:56;;;;;;;3.33;1.80;;;;;;;;;;5031748;28;20044;-70
2024/03/23 13:05:22;;;;;;;5.78;2.28;;;;;;;;;;5033610;28;20163;-71
2024/03/23 13:07:49;;;;;;;4.50;2.00;;;;;;;;;;5029945;28;20033;-70
2024/03/23 13:10:15;;;;;;;2.70;1.60;;;;;;;;;;5035271;28;20029;-70
2024/03/23 13:12:42;;;;;;;2.85;2.05;;;;;;;;;;5040481;28;20549;-70
2024/03/23 13:15:09;;;;;;;3.97;2.15;;;;;;;;;;5043205;28;20491;-70
2024/03/23 13:17:35;;;;;;;4.82;1.92;;;;;;;;;;5039092;28;20355;-70
2024/03/23 13:20:01;;;;;;;7.30;2.33;;;;;;;;;;5033380;28;20429;-69
2024/03/23 13:22:27;;;;;;;4.22;1.80;;;;;;;;;;5035485;28;20549;-70
2024/03/23 13:24:53;;;;;;;7.20;2.55;;;;;;;;;;5029575;28;20032;-70
2024/03/23 13:27:20;;;;;;;2.25;2.00;;;;;;;;;;5039398;28;20037;-70
2024/03/23 13:29:46;;;;;;;4.55;2.00;;;;;;;;;;5031055;28;20456;-70
2024/03/23 13:32:13;;;;;;;5.93;2.10;;;;;;;;;;5037261;28;20021;-71
2024/03/23 13:34:40;;;;;;;2.92;2.10;;;;;;;;;;5030685;28;20080;-70
2024/03/23 13:37:07;;;;;;;5.35;1.95;;;;;;;;;;5039180;28;20104;-70
2024/03/23 13:39:33;;;;;;;2.53;1.95;;;;;;;;;;5039615;28;20064;-71
2024/03/23 13:41:59;;;;;;;5.72;2.30;;;;;;;;;;5036148;28;20021;-71
2024/03/23 13:44:26;;;;;;;7.90;2.45;;;;;;;;;;5041661;28;20388;-70
2024/03/23 13:46:52;;;;;;;6.10;2.08;;;;;;;;;;5043055;28;20036;-71
2024/03/23 13:49:28;;;;;;;4.35;2.10;;;;;;;;;;5033323;28;20033;-70
2024/03/23 13:51:57;;;;;;;2.63;1.77;;;;;;;;;;5033458;28;20044;-70
2024/03/23 13:54:24;;;;;;;5.97;2.30;;;;;;;;;;5033277;28;20072;-70
2024/03/23 13:56:50;;;;;;;7.18;2.60;;;;;;;;;;5029231;28;20412;-70
2024/03/23 13:59:17;;;;;;;4.57;2.00;;;;;;;;;;5034883;28;20030;-70
2024/03/23 14:01:43;;;;;;;6.13;2.17;;;;;;;;;;5035320;28;20381;-69
2024/03/23 14:04:09;;;;;;;8.30;2.45;;;;;;;;;;5027607;28;20014;-69
2024/03/23 14:06:35;;;;;;;5.63;2.42;;;;;;;;;;5029733;28;20275;-71
2024/03/23 14:09:03;;;;;;;7.07;2.28;;;;;;;;;;5037374;28;20029;-70
2024/03/23 14:11:30;;;;;;;7.90;2.13;;;;;;;;;;5037560;28;20017;-70
2024/03/23 14:13:56;;;;;;;2.55;2.00;;;;;;;;;;5040892;28;20035;-70
2024/03/23 14:16:22;;;;;;;6.20;2.28;;;;;;;;;;5041480;28;20021;-70
2024/03/23 14:18:48;;;;;;;4.38;2.60;;;;;;;;;;5046092;28;20035;-70
2024/03/23 14:21:14;;;;;;;8.88;2.45;;;;;;;;;;5027059;28;20025;-70
2024/03/23 14:23:43;;;;;;;6.97;2.17;;;;;;;;;;5040110;28;20029;-70
2024/03/23 14:26:09;;;;;;;6.32;2.30;;;;;;;;;;5029615;28;20045;-71
2024/03/23 14:28:35;;;;;;;4.28;2.83;;;;;;;;;;5035723;28;20029;-69
2024/03/23 14:31:03;;;;;;;4.70;2.83;;;;;;;;;;5032639;28;20025;-69
2024/03/23 14:33:29;;;;;;;4.55;1.95;;;;;;;;;;5047091;28;20417;-68
2024/03/23 14:35:56;;;;;;;5.40;2.50;;;;;;;;;;5029121;28;20026;-68
2024/03/23 14:38:23;;;;;;;4.45;2.55;;;;;;;;;;5034473;28;20079;-67
2024/03/23 14:40:49;;;;;;;5.47;2.22;;;;;;;;;;5035379;28;20037;-68